createdAt,value
2022-10-03T00:02:06.664Z,11.66
2022-10-03T00:05:31.037Z,11.61
2022-10-03T00:08:58.595Z,11.56
2022-10-03T00:12:16.025Z,11.58
2022-10-03T00:15:28.448Z,11.55
2022-10-03T00:19:09.305Z,11.54
2022-10-03T00:22:27.263Z,11.53
2022-10-03T00:25:39.933Z,11.44
2022-10-03T00:29:04.348Z,11.52
2022-10-03T00:32:48.164Z,11.54
2022-10-03T00:36:04.143Z,11.48
2022-10-03T00:39:44.888Z,11.41
2022-10-03T00:43:32.102Z,11.33
2022-10-03T00:47:22.859Z,11.34
2022-10-03T00:50:56.922Z,11.40
2022-10-03T00:54:15.860Z,11.43
2022-10-03T00:57:55.355Z,11.32
2022-10-03T01:01:21.529Z,11.35
2022-10-03T01:04:43.151Z,11.31
2022-10-03T01:08:09.947Z,11.31
2022-10-03T01:11:27.908Z,11.25
2022-10-03T01:15:10.423Z,11.25
2022-10-03T01:18:33.143Z,11.23
2022-10-03T01:21:48.869Z,11.20
2022-10-03T01:25:00.634Z,11.21
2022-10-03T01:28:48.276Z,11.16
2022-10-03T01:31:58.947Z,11.23
2022-10-03T01:35:17.879Z,11.18
2022-10-03T01:38:29.067Z,11.12
2022-10-03T01:41:39.257Z,11.04
2022-10-03T01:45:02.375Z,11.05
2022-10-03T01:48:13.223Z,11.04
2022-10-03T01:51:23.474Z,11.03
2022-10-03T01:54:36.303Z,11.01
2022-10-03T01:57:46.759Z,10.97
2022-10-03T02:01:00.669Z,10.97
2022-10-03T02:04:16.331Z,10.95
2022-10-03T02:07:29.808Z,10.96
2022-10-03T02:10:45.146Z,10.99
2022-10-03T02:13:53.027Z,10.92
2022-10-03T02:17:06.180Z,10.91
2022-10-03T02:20:23.801Z,10.92
2022-10-03T02:23:45.331Z,10.87
2022-10-03T02:27:45.044Z,10.88
2022-10-03T02:31:38.092Z,10.84
2022-10-03T02:35:42.994Z,10.77
2022-10-03T02:39:28.699Z,10.77
2022-10-03T02:43:18.011Z,10.91
2022-10-03T02:47:14.250Z,10.90
2022-10-03T02:50:54.163Z,10.83
2022-10-03T02:55:05.407Z,10.93
2022-10-03T02:59:21.084Z,10.89
2022-10-03T03:03:20.392Z,10.81
2022-10-03T03:07:10.631Z,10.76
2022-10-03T03:10:39.899Z,10.63
2022-10-03T03:14:39.204Z,10.70
2022-10-03T03:17:51.553Z,10.65
2022-10-03T03:21:14.604Z,10.65
2022-10-03T03:24:44.344Z,10.65
2022-10-03T03:28:02.211Z,10.44
2022-10-03T03:31:13.369Z,10.50
2022-10-03T03:34:25.802Z,10.54
2022-10-03T03:37:40.418Z,10.55
2022-10-03T03:40:58.025Z,10.55
2022-10-03T03:44:46.179Z,10.47
2022-10-03T03:48:24.304Z,10.49
2022-10-03T03:51:38.980Z,10.42
2022-10-03T03:55:15.179Z,10.42
2022-10-03T03:58:33.468Z,10.40
2022-10-03T04:01:53.307Z,10.40
2022-10-03T04:05:12.622Z,10.32
2022-10-03T04:08:35.584Z,10.21
2022-10-03T04:11:56.316Z,10.19
2022-10-03T04:15:51.122Z,10.18
2022-10-03T04:19:03.038Z,10.15
2022-10-03T04:22:33.147Z,10.15
2022-10-03T04:25:56.092Z,10.10
2022-10-03T04:29:45.663Z,10.01
2022-10-03T04:33:05.587Z,10.06
2022-10-03T04:37:09.643Z,10.09
2022-10-03T04:40:29.197Z,10.02
2022-10-03T04:43:43.865Z,10.05
2022-10-03T04:46:56.128Z,9.96
2022-10-03T04:50:08.802Z,10.00
2022-10-03T04:53:41.063Z,9.98
2022-10-03T04:56:54.037Z,9.90
2022-10-03T05:00:12.711Z,9.91
2022-10-03T05:03:34.995Z,9.71
2022-10-03T05:06:58.342Z,9.75
2022-10-03T05:10:27.800Z,9.72
2022-10-03T05:13:44.943Z,9.57
2022-10-03T05:16:56.504Z,9.33
2022-10-03T05:20:22.508Z,9.50
2022-10-03T05:23:43.098Z,9.62
2022-10-03T05:26:59.080Z,9.71
2022-10-03T05:30:09.097Z,9.83
2022-10-03T05:33:26.182Z,9.78
2022-10-03T05:36:41.991Z,9.69
2022-10-03T05:39:56.829Z,9.67
2022-10-03T05:43:23.836Z,9.87
2022-10-03T05:47:00.796Z,9.91
2022-10-03T05:51:01.692Z,9.93
2022-10-03T05:54:48.364Z,10.02
2022-10-03T05:58:29.563Z,10.08
2022-10-03T06:02:14.006Z,10.16
2022-10-03T06:05:32.329Z,10.20
2022-10-03T06:09:19.897Z,10.22
2022-10-03T06:12:30.620Z,10.37
2022-10-03T06:15:54.716Z,10.45
2022-10-03T06:19:16.833Z,10.50
2022-10-03T06:23:08.937Z,10.52
2022-10-03T06:26:56.043Z,10.59
2022-10-03T06:30:17.947Z,10.60
2022-10-03T06:34:10.020Z,10.65
2022-10-03T06:38:09.463Z,10.60
2022-10-03T06:41:43.142Z,10.77
2022-10-03T06:45:46.614Z,10.81
2022-10-03T06:49:50.123Z,10.88
2022-10-03T06:53:40.270Z,11.00
2022-10-03T06:57:12.862Z,11.04
2022-10-03T07:00:20.036Z,11.13
2022-10-03T07:04:06.341Z,11.08
2022-10-03T07:07:50.520Z,11.23
2022-10-03T07:11:15.334Z,11.30
2022-10-03T07:15:08.075Z,11.29
2022-10-03T07:18:57.494Z,11.27
2022-10-03T07:23:01.727Z,11.32
2022-10-03T07:27:12.436Z,11.42
2022-10-03T07:30:19.824Z,11.47
2022-10-03T07:33:41.668Z,11.52
2022-10-03T07:37:24.193Z,11.61
2022-10-03T07:40:58.761Z,11.66
2022-10-03T07:44:50.710Z,11.56
2022-10-03T07:48:50.872Z,11.64
2022-10-03T07:52:23.479Z,11.64
2022-10-03T07:55:53.692Z,11.69
2022-10-03T07:59:21.823Z,11.72
2022-10-03T08:03:30.260Z,11.73
2022-10-03T08:06:42.370Z,11.81
2022-10-03T08:10:05.163Z,11.82
2022-10-03T08:13:28.210Z,11.82
2022-10-03T08:17:15.348Z,11.95
2022-10-03T08:20:43.887Z,12.03
2022-10-03T08:24:27.611Z,12.07
2022-10-03T08:27:47.499Z,12.14
2022-10-03T08:31:31.075Z,12.21
2022-10-03T08:35:09.831Z,12.25
2022-10-03T08:38:55.164Z,12.31
2022-10-03T08:42:47.924Z,12.37
2022-10-03T08:46:07.241Z,12.45
2022-10-03T08:49:34.168Z,12.47
2022-10-03T08:53:09.439Z,12.61
2022-10-03T08:56:17.723Z,12.71
2022-10-03T09:00:11.312Z,12.79
2022-10-03T09:04:03.709Z,12.72
2022-10-03T09:07:36.022Z,12.73
2022-10-03T09:11:30.332Z,12.78
2022-10-03T09:15:18.399Z,12.85
2022-10-03T09:18:58.620Z,12.93
2022-10-03T09:22:38.018Z,13.06
2022-10-03T09:26:05.756Z,13.02
2022-10-03T09:29:47.008Z,13.10
2022-10-03T09:33:51.566Z,13.18
2022-10-03T09:37:40.483Z,13.32
2022-10-03T09:41:32.432Z,13.45
2022-10-03T09:45:22.152Z,13.55
2022-10-03T09:49:07.495Z,13.59
2022-10-03T09:52:28.180Z,13.54
2022-10-03T09:55:42.114Z,13.57
2022-10-03T09:59:06.412Z,13.65
2022-10-03T10:02:41.894Z,13.74
2022-10-03T10:06:25.169Z,13.75
2022-10-03T10:10:05.447Z,13.83
2022-10-03T10:13:49.834Z,13.95
2022-10-03T10:17:45.122Z,13.83
2022-10-03T10:21:38.073Z,13.90
2022-10-03T10:25:09.763Z,13.99
2022-10-03T10:28:44.389Z,13.93
2022-10-03T10:32:52.692Z,13.91
2022-10-03T10:36:57.435Z,14.07
2022-10-03T10:40:47.172Z,14.01
2022-10-03T10:44:57.837Z,14.10
2022-10-03T10:49:07.791Z,14.17
2022-10-03T10:53:03.833Z,14.28
2022-10-03T10:56:52.960Z,14.17
2022-10-03T11:00:22.936Z,14.11
2022-10-03T11:04:14.867Z,14.18
2022-10-03T11:08:04.381Z,14.30
2022-10-03T11:12:00.122Z,14.28
2022-10-03T11:16:08.985Z,14.32
2022-10-03T11:20:06.443Z,14.24
2022-10-03T11:24:13.196Z,14.22
2022-10-03T11:28:16.698Z,14.31
2022-10-03T11:32:09.724Z,14.28
2022-10-03T11:36:05.549Z,14.26
2022-10-03T11:39:17.311Z,14.40
2022-10-03T11:42:33.453Z,14.40
2022-10-03T11:45:45.726Z,14.45
2022-10-03T11:48:55.592Z,14.43
2022-10-03T11:52:14.722Z,14.26
2022-10-03T11:55:30.019Z,14.32
2022-10-03T11:58:55.544Z,14.29
2022-10-03T12:02:14.806Z,14.24
2022-10-03T12:05:28.378Z,14.28
2022-10-03T12:08:54.096Z,14.29
2022-10-03T12:12:05.139Z,14.31
2022-10-03T12:15:25.933Z,14.22
2022-10-03T12:18:50.342Z,14.28
2022-10-03T12:21:58.287Z,14.40
2022-10-03T12:25:16.160Z,14.41
2022-10-03T12:28:25.112Z,14.35
2022-10-03T12:31:36.192Z,14.32
2022-10-03T12:34:44.015Z,14.14
2022-10-03T12:38:15.295Z,14.18
2022-10-03T12:41:32.880Z,14.19
2022-10-03T12:44:49.080Z,14.17
2022-10-03T12:48:28.058Z,14.21
2022-10-03T12:51:49.218Z,14.26
2022-10-03T12:55:16.737Z,14.30
2022-10-03T12:58:32.330Z,14.28
2022-10-03T13:01:54.058Z,14.30
2022-10-03T13:05:31.163Z,14.17
2022-10-03T13:09:09.470Z,14.20
2022-10-03T13:12:27.678Z,14.30
2022-10-03T13:15:55.021Z,14.20
2022-10-03T13:19:06.578Z,14.21
2022-10-03T13:22:29.967Z,14.23
2022-10-03T13:25:41.502Z,14.07
2022-10-03T13:29:13.226Z,14.10
2022-10-03T13:32:31.152Z,14.01
2022-10-03T13:35:59.802Z,14.06
2022-10-03T13:39:19.599Z,14.17
2022-10-03T13:42:36.255Z,14.20
2022-10-03T13:45:45.378Z,14.00
2022-10-03T13:49:02.003Z,14.18
2022-10-03T13:52:17.988Z,14.17
2022-10-03T13:55:36.299Z,14.18
2022-10-03T13:58:47.760Z,14.06
2022-10-03T14:02:01.838Z,14.01
2022-10-03T14:05:45.531Z,13.89
2022-10-03T14:09:10.616Z,13.95
2022-10-03T14:12:38.202Z,13.84
2022-10-03T14:15:55.851Z,13.91
2022-10-03T14:19:11.271Z,13.86
2022-10-03T14:22:29.357Z,13.82
2022-10-03T14:25:38.687Z,13.83
2022-10-03T14:28:49.652Z,13.83
2022-10-03T14:32:01.314Z,13.80
2022-10-03T14:35:19.341Z,13.73
2022-10-03T14:39:02.307Z,13.68
2022-10-03T14:42:42.250Z,13.74
2022-10-03T14:45:50.601Z,13.83
2022-10-03T14:48:59.934Z,13.77
2022-10-03T14:52:12.219Z,13.77
2022-10-03T14:55:27.674Z,13.72
2022-10-03T14:58:39.748Z,13.70
2022-10-03T15:01:50.685Z,13.70
2022-10-03T15:04:57.300Z,13.65
2022-10-03T15:08:14.997Z,13.64
2022-10-03T15:11:28.212Z,13.53
2022-10-03T15:14:36.709Z,13.53
2022-10-03T15:17:47.972Z,13.53
2022-10-03T15:20:55.691Z,13.50
2022-10-03T15:24:03.327Z,13.40
2022-10-03T15:27:20.224Z,13.38
2022-10-03T15:30:31.609Z,13.31
2022-10-03T15:33:38.950Z,13.32
2022-10-03T15:36:49.102Z,13.22
2022-10-03T15:39:54.283Z,13.33
2022-10-03T15:43:09.296Z,13.32
2022-10-03T15:46:22.950Z,13.23
2022-10-03T15:49:31.442Z,13.27
2022-10-03T15:52:41.495Z,13.20
2022-10-03T15:55:50.662Z,13.21
2022-10-03T15:59:01.188Z,13.16
2022-10-03T16:02:16.820Z,13.16
2022-10-03T16:05:25.586Z,13.16
2022-10-03T16:08:32.389Z,13.14
2022-10-03T16:11:45.493Z,13.11
2022-10-03T16:14:57.030Z,13.03
2022-10-03T16:18:05.011Z,13.04
2022-10-03T16:21:14.839Z,12.99
2022-10-03T16:24:29.843Z,12.87
2022-10-03T16:27:37.523Z,12.79
2022-10-03T16:30:49.487Z,12.86
2022-10-03T16:33:58.908Z,12.86
2022-10-03T16:37:06.975Z,12.86
2022-10-03T16:40:22.340Z,12.83
2022-10-03T16:43:27.740Z,12.64
2022-10-03T16:46:36.512Z,12.69
2022-10-03T16:50:03.771Z,12.64
2022-10-03T16:53:11.365Z,12.67
2022-10-03T16:56:20.336Z,12.60
2022-10-03T16:59:26.463Z,12.63
2022-10-03T17:02:33.173Z,12.56
2022-10-03T17:05:45.161Z,12.55
2022-10-03T17:08:52.967Z,12.58
2022-10-03T17:12:00.718Z,12.57
2022-10-03T17:15:09.611Z,12.52
2022-10-03T17:18:26.190Z,12.44
2022-10-03T17:21:33.371Z,12.50
2022-10-03T17:24:45.532Z,12.45
2022-10-03T17:27:52.094Z,12.39
2022-10-03T17:30:59.472Z,12.39
2022-10-03T17:34:15.906Z,12.40
2022-10-03T17:37:46.155Z,12.42
2022-10-03T17:41:02.619Z,12.35
2022-10-03T17:44:21.039Z,12.39
2022-10-03T17:47:31.416Z,12.40
2022-10-03T17:50:43.815Z,12.35
2022-10-03T17:53:57.386Z,12.32
2022-10-03T17:57:08.757Z,12.33
2022-10-03T18:00:21.098Z,12.30
2022-10-03T18:03:34.247Z,12.31
2022-10-03T18:06:47.137Z,12.28
2022-10-03T18:09:54.663Z,12.28
2022-10-03T18:13:02.088Z,12.23
2022-10-03T18:16:22.097Z,12.23
2022-10-03T18:19:44.907Z,12.22
2022-10-03T18:22:59.522Z,12.21
2022-10-03T18:26:19.545Z,12.17
2022-10-03T18:29:30.897Z,12.18
2022-10-03T18:32:39.809Z,12.15
2022-10-03T18:35:47.622Z,12.18
2022-10-03T18:38:57.847Z,12.21
2022-10-03T18:42:04.142Z,12.18
2022-10-03T18:45:20.991Z,12.16
2022-10-03T18:48:33.720Z,12.18
2022-10-03T18:51:41.354Z,12.13
2022-10-03T18:54:57.434Z,12.15
2022-10-03T18:58:10.068Z,12.14
2022-10-03T19:01:20.659Z,12.17
2022-10-03T19:04:38.274Z,12.17
2022-10-03T19:07:50.262Z,12.12
2022-10-03T19:11:01.486Z,12.11
2022-10-03T19:14:11.963Z,12.04
2022-10-03T19:17:25.595Z,12.03
2022-10-03T19:20:35.065Z,12.06
2022-10-03T19:23:41.450Z,12.08
2022-10-03T19:26:52.294Z,12.07
2022-10-03T19:29:58.249Z,12.02
2022-10-03T19:33:07.631Z,12.06
2022-10-03T19:36:20.095Z,12.02
2022-10-03T19:39:26.519Z,12.04
2022-10-03T19:42:40.176Z,12.02
2022-10-03T19:45:49.065Z,12.01
2022-10-03T19:49:19.843Z,12.02
2022-10-03T19:52:30.188Z,11.97
2022-10-03T19:55:37.339Z,12.00
2022-10-03T19:58:46.642Z,11.96
2022-10-03T20:01:51.950Z,11.97
2022-10-03T20:04:58.965Z,11.96
2022-10-03T20:08:17.440Z,11.96
2022-10-03T20:11:35.542Z,11.96
2022-10-03T20:14:43.875Z,11.92
2022-10-03T20:17:48.888Z,11.92
2022-10-03T20:20:56.303Z,11.97
2022-10-03T20:24:02.654Z,11.97
2022-10-03T20:27:32.844Z,11.88
2022-10-03T20:30:45.225Z,11.89
2022-10-03T20:33:50.457Z,11.87
2022-10-03T20:37:09.455Z,11.86
2022-10-03T20:40:35.355Z,11.90
2022-10-03T20:43:44.327Z,11.92
2022-10-03T20:46:53.041Z,11.90
2022-10-03T20:50:01.905Z,11.83
2022-10-03T20:53:20.679Z,11.85
2022-10-03T20:56:31.935Z,11.89
2022-10-03T20:59:46.778Z,11.80
2022-10-03T21:02:58.316Z,11.81
2022-10-03T21:06:04.232Z,11.81
2022-10-03T21:09:09.277Z,11.87
2022-10-03T21:12:20.607Z,11.82
2022-10-03T21:15:38.033Z,11.75
2022-10-03T21:18:47.467Z,11.80
2022-10-03T21:21:55.847Z,11.74
2022-10-03T21:25:02.896Z,11.79
2022-10-03T21:28:25.312Z,11.81
2022-10-03T21:31:38.406Z,11.75
2022-10-03T21:34:50.833Z,11.75
2022-10-03T21:38:06.284Z,11.72
2022-10-03T21:41:28.063Z,11.77
2022-10-03T21:44:54.681Z,11.77
2022-10-03T21:48:05.603Z,11.76
2022-10-03T21:51:26.731Z,11.71
2022-10-03T21:54:40.463Z,11.69
2022-10-03T21:57:57.601Z,11.68
2022-10-03T22:01:13.274Z,11.63
2022-10-03T22:04:24.528Z,11.64
2022-10-03T22:07:39.023Z,11.64
2022-10-03T22:10:58.447Z,11.59
2022-10-03T22:14:16.096Z,11.62
2022-10-03T22:17:29.276Z,11.64
2022-10-03T22:20:35.990Z,11.60
2022-10-03T22:23:50.904Z,11.57
2022-10-03T22:27:01.537Z,11.57
2022-10-03T22:30:09.494Z,11.40
2022-10-03T22:33:23.807Z,11.47
2022-10-03T22:36:30.045Z,11.42
2022-10-03T22:39:37.063Z,11.39
2022-10-03T22:42:46.179Z,11.35
2022-10-03T22:45:53.884Z,11.25
2022-10-03T22:49:04.611Z,11.22
2022-10-03T22:52:17.539Z,11.29
2022-10-03T22:55:25.777Z,11.23
2022-10-03T22:58:32.343Z,11.18
2022-10-03T23:01:38.235Z,11.21
2022-10-03T23:04:49.207Z,11.19
2022-10-03T23:08:05.147Z,11.21
2022-10-03T23:11:20.586Z,11.21
2022-10-03T23:14:28.509Z,11.24
2022-10-03T23:18:03.740Z,11.26
2022-10-03T23:21:10.397Z,11.26
2022-10-03T23:24:24.183Z,11.25
2022-10-03T23:27:47.815Z,11.21
2022-10-03T23:30:54.312Z,11.23
2022-10-03T23:33:59.357Z,11.08
2022-10-03T23:37:43.052Z,10.98
2022-10-03T23:40:50.934Z,10.97
2022-10-03T23:43:59.708Z,11.00
2022-10-03T23:47:06.439Z,11.03
2022-10-03T23:50:24.644Z,11.01
2022-10-03T23:53:34.679Z,10.94
2022-10-03T23:56:42.531Z,11.00
2022-10-03T23:59:49.535Z,10.92
